Time;durP1;ratioP1;P1;durP2;ratioP2;P2;SDS_P1;SDS_P2;PMS_P1;PMS_P2;Temp;Humidity;BMP_temperature;BMP_pressure;BME280_temperature;BME280_humidity;BME280_pressure;Samples;Min_cycle;Max_cycle;Signal;HPM_P1;HPM_P2
2022/04/01 00:00:14;;;;;;;6.63;3.40;;;3.00;99.50;;;;;;5039969;28;20056;-79
2022/04/01 00:02:40;;;;;;;8.23;4.03;;;2.90;99.50;;;;;;5056724;28;20025;-75
2022/04/01 00:05:06;;;;;;;6.97;4.10;;;2.90;99.80;;;;;;5074958;28;20027;-76
2022/04/01 00:07:34;;;;;;;5.77;3.30;;;2.80;99.80;;;;;;5056831;28;20024;-76
2022/04/01 00:10:00;;;;;;;6.87;3.60;;;2.80;99.70;;;;;;5039957;28;20029;-76
2022/04/01 00:12:25;;;;;;;8.40;4.00;;;2.80;99.90;;;;;;5074441;28;20031;-76
2022/04/01 00:14:51;;;;;;;8.00;4.07;;;2.70;99.80;;;;;;5056538;28;20108;-75
2022/04/01 00:17:17;;;;;;;7.57;3.80;;;2.60;99.90;;;;;;5056602;28;20032;-82
2022/04/01 00:19:42;;;;;;;7.27;3.97;;;2.70;99.90;;;;;;5039878;28;20519;-75
2022/04/01 00:22:08;;;;;;;6.63;3.80;;;2.60;99.90;;;;;;5023467;28;20045;-76
2022/04/01 00:24:33;;;;;;;7.83;4.03;;;2.60;99.90;;;;;;5074332;28;20056;-79
2022/04/01 00:26:59;;;;;;;7.43;3.80;;;2.60;99.90;;;;;;5056259;28;20499;-77
2022/04/01 00:29:25;;;;;;;5.23;3.43;;;2.60;99.90;;;;;;5039966;28;20139;-78
2022/04/01 00:31:58;;;;;;;7.83;4.50;;;2.60;99.90;;;;;;5039661;28;20119;-77
2022/04/01 00:34:28;;;;;;;7.63;4.50;;;2.60;99.90;;;;;;5041116;28;20098;-76
2022/04/01 00:36:56;;;;;;;8.80;4.40;;;2.70;99.90;;;;;;5056454;28;20020;-76
2022/04/01 00:39:23;;;;;;;8.17;4.27;;;2.60;99.90;;;;;;5039760;28;20409;-76
2022/04/01 00:41:49;;;;;;;9.27;4.50;;;2.60;99.90;;;;;;5056343;28;20033;-76
2022/04/01 00:44:24;;;;;;;10.33;5.00;;;2.60;99.90;;;;;;5056143;28;20067;-77
2022/04/01 00:46:52;;;;;;;6.10;3.67;;;2.60;99.90;;;;;;5056190;28;20028;-77
2022/04/01 00:49:18;;;;;;;8.03;4.03;;;2.70;99.90;;;;;;5056114;28;20021;-76
2022/04/01 00:51:45;;;;;;;9.13;4.70;;;2.70;99.90;;;;;;5016108;28;1170435;-78
2022/04/01 00:54:12;;;;;;;8.47;4.93;;;2.70;99.90;;;;;;5057523;28;20111;-78
2022/04/01 00:56:38;;;;;;;6.40;4.03;;;2.60;99.90;;;;;;5056730;28;20055;-77
2022/04/01 00:59:06;;;;;;;9.87;4.40;;;2.50;99.90;;;;;;5040187;28;20028;-78
2022/04/01 01:01:34;;;;;;;6.47;4.13;;;2.60;99.90;;;;;;5074548;28;20428;-77
2022/04/01 01:04:09;;;;;;;7.73;4.17;;;2.60;99.90;;;;;;5074298;28;20052;-79
2022/04/01 01:06:39;;;;;;;7.77;4.23;;;2.60;99.90;;;;;;5074503;28;20103;-77
2022/04/01 01:09:04;;;;;;;7.50;4.53;;;2.50;99.90;;;;;;5074868;28;20056;-78
2022/04/01 01:11:31;;;;;;;9.43;4.90;;;2.50;99.90;;;;;;5039781;28;20021;-78
2022/04/01 01:13:57;;;;;;;8.40;5.03;;;2.50;99.90;;;;;;5056645;28;20024;-76
2022/04/01 01:16:23;;;;;;;8.80;4.93;;;2.40;99.90;;;;;;5039804;28;20036;-77
2022/04/01 01:19:07;;;;;;;8.97;5.37;;;2.40;99.90;;;;;;5074273;28;20029;-78
2022/04/01 01:21:33;;;;;;;7.57;4.85;;;2.40;99.90;;;;;;5056144;28;20516;-78
2022/04/01 01:24:07;;;;;;;10.03;6.10;;;2.40;99.90;;;;;;5023335;28;20029;-77
2022/04/01 01:26:35;;;;;;;10.00;5.97;;;2.40;99.90;;;;;;5056138;28;20173;-77
2022/04/01 01:29:03;;;;;;;10.57;6.30;;;2.30;99.90;;;;;;5074041;28;20020;-77
2022/04/01 01:31:29;;;;;;;9.23;5.80;;;2.30;99.90;;;;;;5056507;28;20029;-77
2022/04/01 01:33:56;;;;;;;9.97;5.53;;;2.30;99.90;;;;;;5023022;28;20036;-76
2022/04/01 01:36:23;;;;;;;10.07;6.40;;;2.30;99.90;;;;;;5074019;28;20477;-77
2022/04/01 01:38:49;;;;;;;11.63;6.40;;;2.30;99.90;;;;;;5056440;28;20025;-77
2022/04/01 01:41:15;;;;;;;10.70;6.40;;;2.30;99.90;;;;;;5055849;28;20090;-77
2022/04/01 01:43:41;;;;;;;13.47;6.13;;;2.20;99.90;;;;;;5073643;28;20084;-77
2022/04/01 01:46:07;;;;;;;10.30;6.23;;;2.20;99.90;;;;;;5073873;28;20020;-77
2022/04/01 01:48:34;;;;;;;11.00;6.80;;;2.20;99.90;;;;;;5055855;28;20103;-74
2022/04/01 01:56:28;;;;;;;9.00;5.37;;;2.30;99.90;;;;;;5073829;28;19911;-78
2022/04/01 01:58:54;;;;;;;10.30;6.17;;;2.20;99.90;;;;;;5056002;28;20028;-78
2022/04/01 02:01:21;;;;;;;9.17;5.57;;;2.20;99.90;;;;;;5055488;28;20476;-78
2022/04/01 02:03:46;;;;;;;10.50;5.10;;;2.10;99.90;;;;;;5073383;28;20025;-77
2022/04/01 02:06:13;;;;;;;9.20;5.33;;;2.10;99.90;;;;;;5073494;28;20115;-77
2022/04/01 02:08:38;;;;;;;9.20;5.23;;;2.10;99.90;;;;;;5055561;28;20461;-78
2022/04/01 02:11:05;;;;;;;8.80;5.63;;;2.10;99.90;;;;;;5039131;28;20081;-78
2022/04/01 02:13:31;;;;;;;8.70;5.50;;;2.10;99.90;;;;;;5038951;28;20029;-78
2022/04/01 02:15:57;;;;;;;8.77;5.43;;;2.10;99.90;;;;;;5073288;28;20021;-76
2022/04/01 02:18:23;;;;;;;10.27;6.03;;;2.10;99.90;;;;;;5073337;28;20043;-77
2022/04/01 02:20:50;;;;;;;8.67;5.37;;;2.10;99.90;;;;;;5038765;28;20052;-77
2022/04/01 02:23:16;;;;;;;9.90;5.43;;;2.00;99.90;;;;;;5055198;28;20048;-77
2022/04/01 02:25:42;;;;;;;9.17;5.50;;;2.00;99.90;;;;;;5073241;28;20108;-78
2022/04/01 02:28:08;;;;;;;8.77;5.63;;;2.00;99.90;;;;;;5055510;28;20052;-76
2022/04/01 02:30:35;;;;;;;11.40;5.90;;;2.00;99.90;;;;;;5039202;28;20078;-77
2022/04/01 02:33:02;;;;;;;14.53;6.67;;;2.00;99.90;;;;;;5055402;28;20545;-76
2022/04/01 02:35:28;;;;;;;11.07;6.60;;;1.90;99.90;;;;;;5073268;28;20024;-77
2022/04/01 02:37:54;;;;;;;9.60;6.20;;;1.90;99.90;;;;;;5055110;28;20396;-75
2022/04/01 02:40:20;;;;;;;9.67;5.17;;;1.90;99.90;;;;;;5055515;28;20020;-77
2022/04/01 02:42:46;;;;;;;9.13;5.00;;;1.90;99.90;;;;;;5021951;28;20043;-77
2022/04/01 02:45:13;;;;;;;9.50;5.93;;;1.90;99.90;;;;;;5073038;28;20017;-77
2022/04/01 02:47:39;;;;;;;10.07;6.00;;;1.90;99.90;;;;;;5038869;28;20461;-75
2022/04/01 02:50:07;;;;;;;10.60;6.30;;;1.90;99.90;;;;;;5055125;28;20041;-75
2022/04/01 02:52:33;;;;;;;9.40;6.33;;;1.80;99.90;;;;;;5055068;28;20496;-75
2022/04/01 02:54:58;;;;;;;10.17;6.57;;;1.90;99.90;;;;;;5073103;28;20461;-74
2022/04/01 02:57:24;;;;;;;12.33;6.97;;;1.90;99.90;;;;;;5038864;28;20031;-75
2022/04/01 02:59:50;;;;;;;9.60;6.10;;;1.90;99.90;;;;;;5038662;28;20052;-75
2022/04/01 03:02:15;;;;;;;11.63;6.73;;;1.80;99.90;;;;;;5038254;28;20021;-75
2022/04/01 03:04:42;;;;;;;11.43;7.07;;;1.80;99.90;;;;;;5055177;28;20028;-75
2022/04/01 03:07:07;;;;;;;11.90;7.27;;;1.80;99.90;;;;;;5055126;28;20020;-76
2022/04/01 03:09:33;;;;;;;12.90;7.03;;;1.80;99.90;;;;;;5073106;28;20028;-74
2022/04/01 03:12:00;;;;;;;11.20;7.00;;;1.90;99.90;;;;;;5038377;28;20021;-75
2022/04/01 03:14:26;;;;;;;10.57;6.17;;;1.90;99.90;;;;;;5073249;28;20455;-76
2022/04/01 03:16:52;;;;;;;13.73;6.90;;;1.90;99.90;;;;;;5055106;28;20028;-75
2022/04/01 03:19:18;;;;;;;10.73;6.67;;;1.80;99.90;;;;;;5073138;28;20403;-75
2022/04/01 03:21:45;;;;;;;12.20;6.93;;;1.80;99.90;;;;;;5072776;28;20032;-75
2022/04/01 03:24:11;;;;;;;13.10;7.27;;;1.80;99.90;;;;;;5072971;28;20074;-75
2022/04/01 03:26:38;;;;;;;11.63;7.37;;;1.80;99.90;;;;;;5056602;28;20040;-75
2022/04/01 03:29:06;;;;;;;11.80;6.83;;;1.80;99.90;;;;;;5058810;28;20032;-74
2022/04/01 03:31:32;;;;;;;9.77;5.90;;;1.80;99.90;;;;;;5076672;28;20016;-75
2022/04/01 03:33:58;;;;;;;11.87;7.00;;;1.80;99.90;;;;;;5058557;28;20044;-75
2022/04/01 03:36:23;;;;;;;13.13;6.93;;;1.80;99.90;;;;;;5058442;28;20035;-75
2022/04/01 03:38:49;;;;;;;10.20;6.73;;;1.80;99.90;;;;;;5076390;28;20424;-75
2022/04/01 03:41:16;;;;;;;11.53;7.27;;;1.80;99.90;;;;;;5042041;28;20031;-75
2022/04/01 03:43:41;;;;;;;10.60;6.07;;;1.90;99.90;;;;;;5058611;28;20029;-75
2022/04/01 03:46:13;;;;;;;9.20;6.03;;;1.80;99.90;;;;;;5058423;28;20021;-75
2022/04/01 03:48:52;;;;;;;10.87;7.27;;;1.90;99.90;;;;;;5076112;28;20025;-74
2022/04/01 03:51:19;;;;;;;13.03;7.50;;;1.80;99.90;;;;;;5076237;28;20041;-76
2022/04/01 03:53:57;;;;;;;9.33;6.10;;;1.80;99.90;;;;;;5057936;28;20031;-75
2022/04/01 03:56:29;;;;;;;10.53;6.97;;;1.80;99.90;;;;;;5076027;28;20461;-74
2022/04/01 03:58:59;;;;;;;10.17;6.23;;;1.80;99.90;;;;;;5076181;28;20063;-75
2022/04/01 04:01:26;;;;;;;11.53;7.23;;;1.80;99.90;;;;;;5075712;28;20119;-76
2022/04/01 04:03:53;;;;;;;12.13;7.00;;;1.80;99.90;;;;;;5075971;28;20039;-75
2022/04/01 04:06:19;;;;;;;10.87;6.40;;;1.80;99.90;;;;;;5057917;28;20020;-75
2022/04/01 04:08:46;;;;;;;18.33;6.73;;;1.80;99.90;;;;;;5058004;28;20028;-77
2022/04/01 04:11:13;;;;;;;13.83;6.90;;;1.80;99.90;;;;;;5058038;28;20077;-75
2022/04/01 04:13:38;;;;;;;15.27;5.80;;;1.80;99.90;;;;;;5076069;28;20453;-75
2022/04/01 04:16:18;;;;;;;10.37;6.53;;;1.90;99.90;;;;;;5057779;28;20103;-75
2022/04/01 04:18:49;;;;;;;10.17;6.83;;;1.90;99.90;;;;;;5041150;28;20028;-76
2022/04/01 04:21:25;;;;;;;10.40;6.87;;;1.80;99.90;;;;;;5075512;28;20077;-75
2022/04/01 04:23:56;;;;;;;10.80;6.53;;;1.80;99.90;;;;;;5057510;28;20078;-75
2022/04/01 04:26:29;;;;;;;10.47;5.97;;;1.80;99.90;;;;;;5057235;28;20021;-75
2022/04/01 04:29:00;;;;;;;12.03;5.97;;;1.90;99.90;;;;;;5058554;28;20115;-74
2022/04/01 04:31:30;;;;;;;9.23;6.00;;;1.90;99.90;;;;;;5077305;28;20460;-75
2022/04/01 04:33:56;;;;;;;9.27;5.67;;;1.80;99.90;;;;;;5067115;28;20039;-75
2022/04/01 04:36:35;;;;;;;9.77;6.23;;;1.80;99.90;;;;;;5057561;28;20040;-75
2022/04/01 04:39:05;;;;;;;9.13;5.03;;;1.80;99.90;;;;;;5093859;28;20026;-75
2022/04/01 04:41:32;;;;;;;11.67;5.57;;;1.80;99.90;;;;;;5095307;28;20411;-75
2022/04/01 04:43:59;;;;;;;9.87;5.80;;;1.80;99.90;;;;;;5094563;28;20031;-75
2022/04/01 04:46:26;;;;;;;10.10;5.73;;;1.80;99.90;;;;;;5077193;28;20020;-75
2022/04/01 04:48:54;;;;;;;9.80;5.30;;;1.80;99.90;;;;;;5095323;28;20032;-76
2022/04/01 04:51:25;;;;;;;9.23;4.97;;;1.70;99.90;;;;;;5060152;28;20401;-75
2022/04/01 04:53:51;;;;;;;6.93;4.50;;;1.80;99.90;;;;;;5088673;28;20017;-74
2022/04/01 04:56:18;;;;;;;10.17;5.10;;;1.80;99.90;;;;;;5081583;28;20112;-75
2022/04/01 04:58:44;;;;;;;8.70;4.70;;;1.80;99.90;;;;;;5083991;28;20480;-75
2022/04/01 05:01:38;;;;;;;8.37;4.67;;;1.90;99.90;;;;;;5066882;28;20032;-75
2022/04/01 05:04:22;;;;;;;11.13;4.87;;;1.90;99.90;;;;;;5073315;28;20032;-76
2022/04/01 05:07:23;;;;;;;8.25;4.20;;;2.00;99.90;;;;;;5074634;28;20024;-75
2022/04/01 05:10:27;;;;;;;7.67;3.80;;;1.90;99.90;;;;;;5056258;28;20081;-80
2022/04/01 05:13:31;;;;;;;8.53;4.43;;;1.80;99.90;;;;;;5052909;28;20377;-82
2022/04/01 05:16:05;;;;;;;8.38;4.97;;;1.80;99.90;;;;;;5056321;28;20123;-79
2022/04/01 05:18:53;;;;;;;7.95;4.07;;;1.90;99.90;;;;;;5074219;28;20024;-80
2022/04/01 05:21:20;;;;;;;11.73;4.73;;;1.90;99.90;;;;;;5056453;28;20120;-78
2022/04/01 05:23:58;;;;;;;9.33;4.07;;;1.90;99.90;;;;;;5074113;28;20025;-80
2022/04/01 05:26:38;;;;;;;9.67;3.80;;;1.80;99.90;;;;;;5074183;28;20503;-83
2022/04/01 05:29:07;;;;;;;8.13;4.20;;;1.80;99.90;;;;;;5074197;28;20032;-79
2022/04/01 05:31:43;;;;;;;11.80;4.03;;;1.80;99.90;;;;;;5039886;28;20044;-78
2022/04/01 05:34:20;;;;;;;10.10;4.17;;;1.80;99.90;;;;;;5074109;28;20373;-79
2022/04/01 05:36:49;;;;;;;6.90;3.30;;;1.80;99.90;;;;;;5074020;28;20078;-76
2022/04/01 05:39:15;;;;;;;5.87;3.40;;;1.80;99.90;;;;;;5080096;28;20365;-78
2022/04/01 05:41:42;;;;;;;6.47;3.53;;;1.80;99.90;;;;;;5093857;28;20077;-77
2022/04/01 05:44:09;;;;;;;8.10;3.67;;;1.90;99.90;;;;;;5058970;28;20036;-78
2022/04/01 05:46:36;;;;;;;7.30;3.53;;;2.00;99.90;;;;;;5075820;28;20030;-79
2022/04/01 05:49:03;;;;;;;6.80;3.17;;;2.00;99.90;;;;;;5093596;28;20023;-82
2022/04/01 05:51:32;;;;;;;7.27;3.37;;;2.00;99.90;;;;;;5075709;28;20044;-78
2022/04/01 05:53:59;;;;;;;8.60;4.03;;;2.00;99.90;;;;;;5075583;28;20110;-77
2022/04/01 05:56:26;;;;;;;5.77;2.73;;;2.00;99.90;;;;;;5059094;28;20040;-78
2022/04/01 05:58:52;;;;;;;9.13;3.57;;;2.00;99.90;;;;;;5059265;28;20118;-78
2022/04/01 06:01:27;;;;;;;8.03;4.03;;;2.00;99.90;;;;;;5075477;28;20024;-78
2022/04/01 06:04:30;;;;;;;7.47;3.03;;;2.10;99.90;;;;;;5091744;28;20468;-79
2022/04/01 06:07:27;;;;;;;7.27;3.07;;;2.10;99.90;;;;;;5073420;28;20014;-78
2022/04/01 06:10:08;;;;;;;8.53;3.33;;;2.10;99.90;;;;;;5073386;28;20027;-77
2022/04/01 06:13:02;;;;;;;7.00;3.00;;;2.00;99.90;;;;;;5073246;28;20029;-78
2022/04/01 06:15:35;;;;;;;6.27;3.43;;;2.00;99.90;;;;;;5073247;28;20484;-77
2022/04/01 06:18:12;;;;;;;7.78;3.33;;;2.10;99.90;;;;;;5072974;28;20433;-79
2022/04/01 06:20:41;;;;;;;6.20;3.47;;;2.10;99.90;;;;;;5055091;28;20078;-78
2022/04/01 06:23:16;;;;;;;7.67;3.43;;;2.20;99.90;;;;;;5080188;28;20029;-82
2022/04/01 06:25:52;;;;;;;6.03;2.90;;;2.20;99.90;;;;;;5060840;28;20020;-78
2022/04/01 06:28:26;;;;;;;7.57;3.00;;;2.10;99.90;;;;;;5073810;28;20025;-78
2022/04/01 06:31:02;;;;;;;6.67;2.97;;;2.20;99.90;;;;;;5093176;28;20016;-78
2022/04/01 06:33:49;;;;;;;5.83;2.93;;;2.10;99.90;;;;;;5055460;28;20020;-80
2022/04/01 06:36:24;;;;;;;7.60;2.87;;;2.20;99.90;;;;;;5073128;28;20025;-82
2022/04/01 06:39:01;;;;;;;6.83;2.87;;;2.20;99.90;;;;;;5055297;28;20070;-82
2022/04/01 06:41:31;;;;;;;6.03;2.90;;;2.20;99.90;;;;;;5073176;28;20023;-79
2022/04/01 06:43:57;;;;;;;5.13;2.67;;;2.20;99.90;;;;;;5073083;28;20035;-80
2022/04/01 06:46:23;;;;;;;7.80;3.20;;;2.20;99.90;;;;;;5054951;28;20029;-79
2022/04/01 06:48:48;;;;;;;7.83;3.30;;;2.20;99.90;;;;;;5038779;28;20470;-78
2022/04/01 06:51:15;;;;;;;8.50;3.57;;;2.30;99.90;;;;;;5038632;28;20055;-80
2022/04/01 06:53:41;;;;;;;6.50;2.97;;;2.30;99.90;;;;;;5055540;28;20496;-77
2022/04/01 06:56:11;;;;;;;6.53;3.20;;;2.20;99.90;;;;;;5055565;28;20064;-78
2022/04/01 06:58:37;;;;;;;8.67;3.63;;;2.20;99.90;;;;;;5072974;28;20073;-79
2022/04/01 07:01:03;;;;;;;8.53;3.20;;;2.20;99.90;;;;;;5073862;28;20478;-78
2022/04/01 07:03:30;;;;;;;6.13;3.27;;;2.20;99.90;;;;;;5042414;28;20056;-80
2022/04/01 07:05:56;;;;;;;7.57;3.27;;;2.20;99.90;;;;;;5058898;28;20353;-82
2022/04/01 07:08:22;;;;;;;6.47;3.30;;;2.30;99.90;;;;;;5077114;28;20020;-80
2022/04/01 07:10:48;;;;;;;6.60;2.73;;;2.30;99.90;;;;;;5042575;28;20031;-80
2022/04/01 07:13:15;;;;;;;9.53;3.23;;;2.30;99.90;;;;;;5042213;28;20024;-76
2022/04/01 07:15:41;;;;;;;7.07;3.60;;;2.30;99.90;;;;;;5076948;28;20039;-81
2022/04/01 07:18:07;;;;;;;7.63;2.87;;;2.30;99.90;;;;;;5042130;28;20435;-80
2022/04/01 07:20:33;;;;;;;9.43;3.40;;;2.40;99.90;;;;;;5058831;28;20035;-78
2022/04/01 07:22:59;;;;;;;11.60;3.53;;;2.40;99.90;;;;;;5076774;28;20031;-83
2022/04/01 07:25:25;;;;;;;8.03;3.30;;;2.40;99.90;;;;;;5076759;28;20373;-78
2022/04/01 07:27:53;;;;;;;8.13;3.73;;;2.50;99.90;;;;;;5042024;28;20412;-79
2022/04/01 07:30:19;;;;;;;6.57;2.90;;;2.40;99.90;;;;;;5058536;28;20021;-77
2022/04/01 07:32:45;;;;;;;6.57;3.10;;;2.50;99.90;;;;;;5076250;28;20394;-79
2022/04/01 07:35:13;;;;;;;8.23;3.27;;;2.40;99.50;;;;;;5058252;28;20021;-78
2022/04/01 07:37:41;;;;;;;7.50;3.20;;;2.30;99.40;;;;;;5076217;28;20028;-77
2022/04/01 07:40:08;;;;;;;7.70;2.60;;;2.30;99.50;;;;;;5058379;28;20368;-77
2022/04/01 07:42:35;;;;;;;7.00;2.70;;;2.20;99.60;;;;;;5062073;28;20078;-78
2022/04/01 07:45:02;;;;;;;9.40;3.13;;;2.20;99.70;;;;;;5061509;28;20020;-78
2022/04/01 07:47:28;;;;;;;6.37;2.80;;;2.20;99.80;;;;;;5096315;28;20031;-77
2022/04/01 07:49:54;;;;;;;6.00;2.33;;;2.20;99.80;;;;;;5077863;28;20060;-77
2022/04/01 07:52:21;;;;;;;6.33;2.47;;;2.20;99.90;;;;;;5044571;28;20476;-78
2022/04/01 07:54:49;;;;;;;5.70;2.50;;;2.30;99.90;;;;;;5061812;28;20020;-78
2022/04/01 07:57:16;;;;;;;6.00;2.63;;;2.30;99.90;;;;;;5089129;28;20029;-77
2022/04/01 07:59:42;;;;;;;5.63;2.60;;;2.30;99.90;;;;;;5078110;28;20388;-77
2022/04/01 08:02:08;;;;;;;11.67;3.07;;;2.40;99.90;;;;;;5087840;28;20416;-78
2022/04/01 08:04:34;;;;;;;5.73;2.37;;;2.40;99.90;;;;;;5057623;28;20040;-77
2022/04/01 08:07:00;;;;;;;3.90;1.73;;;2.40;99.70;;;;;;5075726;28;20021;-78
2022/04/01 08:09:26;;;;;;;4.13;1.70;;;2.40;99.20;;;;;;5057437;28;20026;-79
2022/04/01 08:11:53;;;;;;;7.40;1.60;;;2.50;99.30;;;;;;5057568;28;20024;-78
2022/04/01 08:14:19;;;;;;;5.87;2.13;;;2.50;99.10;;;;;;5041127;28;20469;-77
2022/04/01 08:16:45;;;;;;;5.47;1.80;;;2.50;98.80;;;;;;5057320;28;20032;-78
2022/04/01 08:19:11;;;;;;;4.20;1.63;;;2.60;98.80;;;;;;5040893;28;20115;-77
2022/04/01 08:21:37;;;;;;;5.80;1.40;;;2.60;98.70;;;;;;5075253;28;20532;-78
2022/04/01 08:24:03;;;;;;;3.57;1.33;;;2.70;98.30;;;;;;5060648;28;20389;-78
2022/04/01 08:26:29;;;;;;;4.33;1.10;;;2.80;98.10;;;;;;5060785;28;20094;-78
2022/04/01 08:28:55;;;;;;;4.60;1.30;;;2.70;97.50;;;;;;5061159;28;20376;-78
2022/04/01 08:31:21;;;;;;;4.47;1.10;;;2.70;97.30;;;;;;5078011;28;20027;-77
2022/04/01 08:33:50;;;;;;;2.43;0.83;;;2.80;96.90;;;;;;5077279;28;20032;-78
2022/04/01 08:36:17;;;;;;;2.07;0.90;;;2.80;96.90;;;;;;5044566;28;20480;-79
2022/04/01 08:38:43;;;;;;;5.07;1.27;;;2.90;96.70;;;;;;5060648;28;20048;-79
2022/04/01 08:41:09;;;;;;;4.73;1.20;;;2.80;96.60;;;;;;5077287;28;20024;-79
2022/04/01 08:43:36;;;;;;;7.83;1.30;;;2.80;96.30;;;;;;5076868;28;20047;-77
2022/04/01 08:46:05;;;;;;;5.23;1.20;;;2.90;96.40;;;;;;5076847;28;20043;-79
2022/04/01 08:48:32;;;;;;;4.47;1.00;;;2.90;96.50;;;;;;5076916;28;20020;-78
2022/04/01 08:50:58;;;;;;;3.87;1.30;;;3.00;96.50;;;;;;5056914;28;20052;-79
2022/04/01 08:53:24;;;;;;;3.87;1.00;;;3.00;95.80;;;;;;5073279;28;20028;-78
2022/04/01 08:55:55;;;;;;;6.13;1.00;;;3.10;95.50;;;;;;5074615;28;20028;-78
2022/04/01 08:58:23;;;;;;;2.97;1.00;;;3.10;94.90;;;;;;5073281;28;20089;-78
2022/04/01 09:00:49;;;;;;;2.47;0.83;;;3.10;94.70;;;;;;5074423;28;20021;-77
2022/04/01 09:03:17;;;;;;;2.83;0.90;;;3.20;94.70;;;;;;5074667;28;20477;-77
2022/04/01 09:05:51;;;;;;;2.43;1.07;;;3.30;94.80;;;;;;5074601;28;20150;-82
2022/04/01 09:08:22;;;;;;;;;;;3.40;95.10;;;;;;5073491;28;20016;-79
2022/04/01 09:11:01;;;;;;;2.27;0.77;;;3.50;94.50;;;;;;5073051;28;19905;-79
2022/04/01 09:13:46;;;;;;;2.03;0.70;;;3.60;94.70;;;;;;5073070;28;20028;-78
2022/04/01 09:16:32;;;;;;;2.47;1.00;;;3.70;93.80;;;;;;5074257;28;20021;-79
2022/04/01 09:19:00;;;;;;;2.53;0.90;;;3.70;93.70;;;;;;5071445;28;20036;-80
2022/04/01 09:21:31;;;;;;;5.00;1.10;;;3.80;93.80;;;;;;5062912;28;20033;-84
2022/04/01 09:23:58;;;;;;;5.33;1.30;;;3.90;93.70;;;;;;5052201;28;20029;-84
2022/04/01 09:26:35;;;;;;;4.93;1.27;;;4.00;93.70;;;;;;5060266;28;20036;-83
2022/04/01 09:29:02;;;;;;;6.23;1.20;;;4.10;93.70;;;;;;5058949;28;20022;-79
2022/04/01 09:31:52;;;;;;;3.33;1.03;;;4.20;93.50;;;;;;5052732;28;20029;-79
2022/04/01 09:34:18;;;;;;;2.90;1.03;;;4.30;92.80;;;;;;5052693;28;20115;-79
2022/04/01 09:36:44;;;;;;;2.83;1.47;;;4.40;92.60;;;;;;5053017;28;20431;-79
2022/04/01 09:39:16;;;;;;;8.43;1.43;;;4.50;92.60;;;;;;5054296;28;20028;-84
2022/04/01 09:41:54;;;;;;;4.67;1.60;;;4.60;93.20;;;;;;5052542;28;20033;-83
2022/04/01 09:44:21;;;;;;;5.03;1.30;;;4.70;93.30;;;;;;5053934;28;20098;-79
2022/04/01 09:47:03;;;;;;;4.63;1.67;;;4.80;92.40;;;;;;5052600;28;20050;-79
2022/04/01 09:49:42;;;;;;;4.83;1.60;;;4.90;92.20;;;;;;5052432;28;20021;-80
2022/04/01 09:52:11;;;;;;;4.77;1.63;;;5.00;92.00;;;;;;5053811;28;20094;-80
2022/04/01 09:54:51;;;;;;;4.80;1.50;;;5.10;91.90;;;;;;5053407;28;20159;-78
2022/04/01 09:57:20;;;;;;;4.87;1.83;;;4.90;91.60;;;;;;5053383;28;20462;-82
2022/04/01 09:59:47;;;;;;;4.97;1.60;;;4.90;91.40;;;;;;5053654;28;20029;-79
2022/04/01 10:02:13;;;;;;;5.13;2.00;;;4.90;91.10;;;;;;5052296;28;20325;-77
2022/04/01 10:04:39;;;;;;;4.47;1.80;;;4.90;91.20;;;;;;5051934;28;20108;-79
2022/04/01 10:07:05;;;;;;;4.50;1.67;;;5.00;91.90;;;;;;5058403;28;20037;-81
2022/04/01 10:09:31;;;;;;;4.33;1.90;;;5.10;91.20;;;;;;5052324;28;20099;-78
2022/04/01 10:12:03;;;;;;;4.77;1.83;;;5.10;90.90;;;;;;5053701;28;20104;-86
2022/04/01 10:14:31;;;;;;;5.77;2.00;;;5.10;90.30;;;;;;5052102;28;20028;-77
2022/04/01 10:17:00;;;;;;;6.70;2.37;;;5.10;90.10;;;;;;5053638;28;20029;-77
2022/04/01 10:19:32;;;;;;;6.60;2.20;;;5.10;90.30;;;;;;5054810;28;20067;-76
2022/04/01 10:21:59;;;;;;;5.13;2.13;;;5.10;88.50;;;;;;5070944;28;20077;-75
2022/04/01 10:24:50;;;;;;;4.73;2.23;;;5.00;88.70;;;;;;5067615;28;20054;-74
2022/04/01 10:27:15;;;;;;;6.37;2.40;;;5.10;89.30;;;;;;5073346;28;20029;-78
2022/04/01 10:29:43;;;;;;;5.10;2.47;;;5.20;89.70;;;;;;5071838;28;20078;-76
2022/04/01 10:32:21;;;;;;;8.43;2.13;;;5.30;90.30;;;;;;5073549;28;20016;-76
2022/04/01 10:34:48;;;;;;;5.77;2.13;;;5.40;90.00;;;;;;5072628;28;20408;-76
2022/04/01 10:37:15;;;;;;;10.00;2.57;;;5.40;90.00;;;;;;5076035;28;20017;-76
2022/04/01 10:39:50;;;;;;;5.77;2.27;;;5.40;88.90;;;;;;5076323;28;20036;-82
2022/04/01 10:42:17;;;;;;;7.20;2.80;;;5.50;89.30;;;;;;5077452;28;20142;-87
2022/04/01 10:44:48;;;;;;;5.67;2.60;;;5.50;88.80;;;;;;5075837;28;20021;-81
2022/04/01 10:47:14;;;;;;;8.80;3.30;;;5.40;88.50;;;;;;5076560;28;20028;-81
2022/04/01 10:52:24;;;;;;;7.35;3.55;;;5.30;87.30;;;;;;5097791;28;20039;-78
2022/04/01 10:55:06;;;;;;;6.27;2.90;;;5.10;87.10;;;;;;5062433;28;20040;-87
2022/04/01 10:57:37;;;;;;;7.27;2.93;;;5.20;87.80;;;;;;5064923;28;20027;-77
2022/04/01 11:00:08;;;;;;;6.60;2.83;;;5.10;87.10;;;;;;5097823;28;20460;-76
2022/04/01 11:02:34;;;;;;;7.20;2.80;;;5.00;87.30;;;;;;5097423;28;20043;-75
2022/04/01 11:05:20;;;;;;;9.03;2.93;;;5.10;87.50;;;;;;5097714;28;20028;-76
2022/04/01 11:07:45;;;;;;;6.50;2.83;;;5.10;86.80;;;;;;5096937;28;20043;-75
2022/04/01 11:10:24;;;;;;;4.90;2.27;;;5.20;87.70;;;;;;5097686;28;20032;-76
2022/04/01 11:12:50;;;;;;;8.73;2.83;;;5.40;87.70;;;;;;5079299;28;20036;-75
2022/04/01 11:15:25;;;;;;;5.80;2.57;;;5.40;87.30;;;;;;5079020;28;20032;-75
2022/04/01 11:17:57;;;;;;;6.43;2.57;;;5.60;87.20;;;;;;5078598;28;20031;-75
2022/04/01 11:20:27;;;;;;;8.27;3.13;;;5.80;84.10;;;;;;5096775;28;20476;-75
2022/04/01 11:22:52;;;;;;;6.43;2.80;;;5.80;83.70;;;;;;5062199;28;20038;-76
2022/04/01 11:25:51;;;;;;;6.40;2.90;;;5.80;82.20;;;;;;5078819;28;20107;-76
2022/04/01 11:28:17;;;;;;;7.23;2.90;;;5.80;81.80;;;;;;5096761;28;20019;-76
2022/04/01 11:31:03;;;;;;;8.07;3.07;;;5.70;82.20;;;;;;5096937;28;20024;-76
2022/04/01 11:33:29;;;;;;;8.37;3.23;;;5.60;82.60;;;;;;5078603;28;20028;-76
2022/04/01 11:35:57;;;;;;;7.60;2.73;;;5.60;83.00;;;;;;5096820;28;20034;-76
2022/04/01 11:38:27;;;;;;;7.23;3.17;;;5.70;83.90;;;;;;5096914;28;20028;-76
2022/04/01 11:41:00;;;;;;;6.37;3.07;;;5.70;82.50;;;;;;5096787;28;20541;-76
2022/04/01 11:43:27;;;;;;;7.87;3.47;;;5.70;83.80;;;;;;5078312;28;20024;-76
2022/04/01 11:46:06;;;;;;;8.67;3.80;;;5.70;83.50;;;;;;5096580;28;20074;-76
2022/04/01 11:48:38;;;;;;;9.33;4.20;;;5.60;82.60;;;;;;5077504;28;20013;-75
2022/04/01 11:51:16;;;;;;;8.20;3.93;;;5.60;83.00;;;;;;5095953;28;20044;-75
2022/04/01 11:53:49;;;;;;;6.60;3.80;;;5.50;83.20;;;;;;5096475;28;20452;-75
2022/04/01 11:56:17;;;;;;;8.13;3.20;;;5.50;83.80;;;;;;5096599;28;20540;-76
2022/04/01 11:58:50;;;;;;;7.53;3.80;;;5.50;84.00;;;;;;5078749;28;20499;-76
2022/04/01 12:01:18;;;;;;;8.77;3.78;;;5.60;84.40;;;;;;5078056;28;20081;-76
2022/04/01 12:03:44;;;;;;;8.43;3.97;;;5.60;83.10;;;;;;5096055;28;20021;-77
2022/04/01 12:08:54;;;;;;;8.77;4.38;;;5.70;83.60;;;;;;5081309;28;20047;-76
2022/04/01 12:11:19;;;;;;;7.97;3.70;;;5.80;83.90;;;;;;5078300;28;20028;-78
2022/04/01 12:13:49;;;;;;;7.43;4.10;;;5.80;85.60;;;;;;5061633;28;20119;-76
2022/04/01 12:16:16;;;;;;;11.40;4.23;;;6.00;84.00;;;;;;5096231;28;20028;-75
2022/04/01 12:18:45;;;;;;;10.53;4.00;;;6.10;83.20;;;;;;5077624;28;20181;-75
2022/04/01 12:21:17;;;;;;;8.80;4.10;;;6.20;81.80;;;;;;5095729;28;20103;-77
2022/04/01 12:23:48;;;;;;;11.77;4.53;;;6.20;81.50;;;;;;5077606;28;20046;-77
2022/04/01 12:26:19;;;;;;;9.57;4.20;;;6.10;80.20;;;;;;5096205;28;20039;-75
2022/04/01 12:28:45;;;;;;;10.50;4.63;;;6.10;79.60;;;;;;5095464;28;20021;-75
2022/04/01 12:31:17;;;;;;;10.10;5.03;;;6.10;79.20;;;;;;5064988;28;20105;-76
2022/04/01 12:33:53;;;;;;;9.67;4.17;;;5.90;77.80;;;;;;5077761;28;20028;-75
2022/04/01 12:36:33;;;;;;;9.60;4.03;;;5.80;78.00;;;;;;5056606;28;20033;-76
2022/04/01 12:39:10;;;;;;;9.60;4.70;;;5.80;78.20;;;;;;5075025;28;20553;-76
2022/04/01 12:41:52;;;;;;;7.00;4.03;;;5.80;78.60;;;;;;5075291;28;20035;-76
2022/04/01 12:44:21;;;;;;;10.47;5.07;;;5.80;78.40;;;;;;5074475;28;20165;-76
2022/04/01 12:46:49;;;;;;;8.60;3.77;;;5.90;78.50;;;;;;5057511;28;20035;-75
2022/04/01 12:49:20;;;;;;;11.80;4.90;;;5.90;79.10;;;;;;5057183;28;20020;-76
2022/04/01 12:51:58;;;;;;;8.63;3.83;;;5.90;78.80;;;;;;5073868;28;20044;-74
2022/04/01 12:54:28;;;;;;;11.63;4.33;;;5.90;79.00;;;;;;5074816;28;20032;-76
2022/04/01 12:56:55;;;;;;;8.23;4.30;;;5.80;78.70;;;;;;5056636;28;20024;-75
2022/04/01 12:59:22;;;;;;;8.53;4.10;;;5.80;79.20;;;;;;5073444;28;20052;-76
2022/04/01 13:01:58;;;;;;;9.37;4.67;;;5.80;80.00;;;;;;5082025;28;20480;-76
2022/04/01 13:04:23;;;;;;;7.97;3.70;;;5.90;79.60;;;;;;5064789;28;20024;-76
2022/04/01 13:07:34;;;;;;;8.37;4.33;;;6.00;79.50;;;;;;5053689;28;20077;-75
2022/04/01 13:10:15;;;;;;;6.77;3.93;;;6.10;79.40;;;;;;5025173;28;20060;-79
2022/04/01 13:12:46;;;;;;;8.80;4.40;;;6.20;79.40;;;;;;5074540;28;20028;-77
2022/04/01 13:15:15;;;;;;;7.90;3.93;;;6.30;78.70;;;;;;5087852;28;20032;-76
2022/04/01 13:17:52;;;;;;;7.40;3.90;;;6.50;79.80;;;;;;5067838;28;20098;-78
2022/04/01 13:20:36;;;;;;;7.70;3.67;;;7.00;80.50;;;;;;5046497;28;20033;-75